sensor_id;sensor_type;location;lat;lon;timestamp;pressure;altitude;pressure_sealevel;temperature;humidity
24390;BME280;12510;56.468;-3.004;2022-08-21T00:02:16;99879.22;;;14.46;100.00
24390;BME280;12510;56.468;-3.004;2022-08-21T00:04:43;99889.16;;;14.44;100.00
24390;BME280;12510;56.468;-3.004;2022-08-21T00:07:10;99885.28;;;14.31;100.00
24390;BME280;12510;56.468;-3.004;2022-08-21T00:09:37;99880.28;;;14.36;100.00
24390;BME280;12510;56.468;-3.004;2022-08-21T00:12:04;99884.59;;;14.52;100.00
24390;BME280;12510;56.468;-3.004;2022-08-21T00:14:32;99887.50;;;14.66;100.00
24390;BME280;12510;56.468;-3.004;2022-08-21T00:16:59;99886.16;;;14.23;100.00
24390;BME280;12510;56.468;-3.004;2022-08-21T00:19:26;99888.03;;;14.38;100.00
24390;BME280;12510;56.468;-3.004;2022-08-21T00:21:54;99886.06;;;14.40;100.00
24390;BME280;12510;56.468;-3.004;2022-08-21T00:24:21;99887.59;;;14.49;100.00
24390;BME280;12510;56.468;-3.004;2022-08-21T00:26:51;99880.66;;;14.48;100.00
24390;BME280;12510;56.468;-3.004;2022-08-21T00:29:18;99883.56;;;14.38;100.00
24390;BME280;12510;56.468;-3.004;2022-08-21T00:31:45;99877.84;;;14.50;100.00
24390;BME280;12510;56.468;-3.004;2022-08-21T00:34:12;99870.28;;;14.62;100.00
24390;BME280;12510;56.468;-3.004;2022-08-21T00:36:39;99878.97;;;14.70;100.00
24390;BME280;12510;56.468;-3.004;2022-08-21T00:39:07;99865.19;;;14.37;100.00
24390;BME280;12510;56.468;-3.004;2022-08-21T00:41:36;99864.22;;;14.53;100.00
24390;BME280;12510;56.468;-3.004;2022-08-21T00:44:03;99870.41;;;14.68;100.00
24390;BME280;12510;56.468;-3.004;2022-08-21T00:46:30;99871.00;;;14.55;100.00
24390;BME280;12510;56.468;-3.004;2022-08-21T00:48:57;99874.72;;;14.61;100.00
24390;BME280;12510;56.468;-3.004;2022-08-21T00:51:26;99870.34;;;14.53;100.00
24390;BME280;12510;56.468;-3.004;2022-08-21T00:53:57;99866.59;;;14.63;100.00
24390;BME280;12510;56.468;-3.004;2022-08-21T00:56:26;99866.72;;;14.69;100.00
24390;BME280;12510;56.468;-3.004;2022-08-21T00:58:54;99866.47;;;14.79;100.00
24390;BME280;12510;56.468;-3.004;2022-08-21T01:01:21;99861.69;;;14.89;100.00
24390;BME280;12510;56.468;-3.004;2022-08-21T01:03:48;99859.13;;;14.96;100.00
24390;BME280;12510;56.468;-3.004;2022-08-21T01:06:16;99868.09;;;15.10;100.00
24390;BME280;12510;56.468;-3.004;2022-08-21T01:08:42;99867.75;;;14.98;100.00
24390;BME280;12510;56.468;-3.004;2022-08-21T01:11:09;99872.13;;;14.76;100.00
24390;BME280;12510;56.468;-3.004;2022-08-21T01:13:36;99867.75;;;14.68;100.00
24390;BME280;12510;56.468;-3.004;2022-08-21T01:16:09;99870.31;;;14.77;100.00
24390;BME280;12510;56.468;-3.004;2022-08-21T01:18:35;99862.34;;;14.77;100.00
24390;BME280;12510;56.468;-3.004;2022-08-21T01:23:29;99867.66;;;14.91;100.00
24390;BME280;12510;56.468;-3.004;2022-08-21T01:25:55;99858.88;;;14.91;100.00
24390;BME280;12510;56.468;-3.004;2022-08-21T01:28:22;99867.75;;;14.68;100.00
24390;BME280;12510;56.468;-3.004;2022-08-21T01:30:50;99873.25;;;14.82;100.00
24390;BME280;12510;56.468;-3.004;2022-08-21T01:33:22;99874.44;;;14.56;100.00
24390;BME280;12510;56.468;-3.004;2022-08-21T01:35:50;99868.56;;;14.84;100.00
24390;BME280;12510;56.468;-3.004;2022-08-21T01:38:17;99871.28;;;14.61;100.00
24390;BME280;12510;56.468;-3.004;2022-08-21T01:40:43;99870.94;;;14.64;100.00
24390;BME280;12510;56.468;-3.004;2022-08-21T01:43:10;99873.41;;;14.65;100.00
24390;BME280;12510;56.468;-3.004;2022-08-21T01:45:36;99871.41;;;14.67;100.00
24390;BME280;12510;56.468;-3.004;2022-08-21T01:48:03;99868.81;;;14.59;100.00
24390;BME280;12510;56.468;-3.004;2022-08-21T01:50:30;99866.50;;;14.56;100.00
24390;BME280;12510;56.468;-3.004;2022-08-21T01:52:56;99867.16;;;14.58;100.00
24390;BME280;12510;56.468;-3.004;2022-08-21T01:55:23;99881.41;;;14.57;100.00
24390;BME280;12510;56.468;-3.004;2022-08-21T01:57:49;99882.03;;;14.44;100.00
24390;BME280;12510;56.468;-3.004;2022-08-21T02:00:18;99878.31;;;14.53;100.00
24390;BME280;12510;56.468;-3.004;2022-08-21T02:02:45;99873.91;;;14.46;100.00
24390;BME280;12510;56.468;-3.004;2022-08-21T02:05:12;99872.25;;;14.45;100.00
24390;BME280;12510;56.468;-3.004;2022-08-21T02:07:45;99878.25;;;14.38;100.00
24390;BME280;12510;56.468;-3.004;2022-08-21T02:10:15;99871.34;;;14.37;100.00
24390;BME280;12510;56.468;-3.004;2022-08-21T02:12:42;99874.69;;;14.31;100.00
24390;BME280;12510;56.468;-3.004;2022-08-21T02:15:10;99861.06;;;14.19;100.00
24390;BME280;12510;56.468;-3.004;2022-08-21T02:17:45;99862.31;;;14.08;100.00
24390;BME280;12510;56.468;-3.004;2022-08-21T02:20:27;99859.66;;;14.08;100.00
24390;BME280;12510;56.468;-3.004;2022-08-21T02:22:54;99865.84;;;14.01;100.00
24390;BME280;12510;56.468;-3.004;2022-08-21T02:25:22;99869.66;;;13.98;100.00
24390;BME280;12510;56.468;-3.004;2022-08-21T02:27:50;99875.19;;;14.12;100.00
24390;BME280;12510;56.468;-3.004;2022-08-21T02:30:29;99878.38;;;14.07;100.00
24390;BME280;12510;56.468;-3.004;2022-08-21T02:32:55;99873.88;;;14.07;100.00
24390;BME280;12510;56.468;-3.004;2022-08-21T02:35:23;99858.50;;;14.26;100.00
24390;BME280;12510;56.468;-3.004;2022-08-21T02:37:54;99870.06;;;14.33;100.00
24390;BME280;12510;56.468;-3.004;2022-08-21T02:40:23;99866.09;;;14.29;100.00
24390;BME280;12510;56.468;-3.004;2022-08-21T02:42:50;99862.91;;;14.34;100.00
24390;BME280;12510;56.468;-3.004;2022-08-21T02:45:17;99861.63;;;14.30;100.00
24390;BME280;12510;56.468;-3.004;2022-08-21T02:47:52;99851.56;;;14.25;100.00
24390;BME280;12510;56.468;-3.004;2022-08-21T02:50:23;99854.41;;;14.23;100.00
24390;BME280;12510;56.468;-3.004;2022-08-21T02:52:49;99856.50;;;14.13;100.00
24390;BME280;12510;56.468;-3.004;2022-08-21T02:55:19;99859.94;;;14.14;100.00
24390;BME280;12510;56.468;-3.004;2022-08-21T02:57:47;99869.94;;;14.03;100.00
24390;BME280;12510;56.468;-3.004;2022-08-21T03:00:15;99867.00;;;14.21;100.00
24390;BME280;12510;56.468;-3.004;2022-08-21T03:02:42;99868.28;;;14.25;100.00
24390;BME280;12510;56.468;-3.004;2022-08-21T03:05:09;99874.59;;;14.24;100.00
24390;BME280;12510;56.468;-3.004;2022-08-21T03:07:37;99875.78;;;14.37;100.00
24390;BME280;12510;56.468;-3.004;2022-08-21T03:10:05;99871.59;;;14.42;100.00
24390;BME280;12510;56.468;-3.004;2022-08-21T03:12:32;99871.34;;;14.52;100.00
24390;BME280;12510;56.468;-3.004;2022-08-21T03:14:58;99878.13;;;14.55;100.00
24390;BME280;12510;56.468;-3.004;2022-08-21T03:17:25;99884.94;;;14.72;100.00
24390;BME280;12510;56.468;-3.004;2022-08-21T03:19:51;99881.97;;;14.52;100.00
24390;BME280;12510;56.468;-3.004;2022-08-21T03:22:18;99879.63;;;14.72;100.00
24390;BME280;12510;56.468;-3.004;2022-08-21T03:24:44;99878.63;;;14.73;100.00
24390;BME280;12510;56.468;-3.004;2022-08-21T03:27:11;99865.09;;;14.30;100.00
24390;BME280;12510;56.468;-3.004;2022-08-21T03:29:39;99870.84;;;14.19;100.00
24390;BME280;12510;56.468;-3.004;2022-08-21T03:32:06;99876.69;;;14.29;100.00
24390;BME280;12510;56.468;-3.004;2022-08-21T03:34:36;99868.00;;;14.20;100.00
24390;BME280;12510;56.468;-3.004;2022-08-21T03:37:07;99876.13;;;13.96;100.00
24390;BME280;12510;56.468;-3.004;2022-08-21T03:39:34;99865.31;;;14.05;100.00
24390;BME280;12510;56.468;-3.004;2022-08-21T03:42:00;99867.00;;;13.98;100.00
24390;BME280;12510;56.468;-3.004;2022-08-21T03:44:27;99859.66;;;13.62;100.00
24390;BME280;12510;56.468;-3.004;2022-08-21T03:46:57;99866.75;;;13.93;100.00
24390;BME280;12510;56.468;-3.004;2022-08-21T03:49:25;99880.53;;;14.03;100.00
24390;BME280;12510;56.468;-3.004;2022-08-21T03:51:51;99872.13;;;13.77;100.00
24390;BME280;12510;56.468;-3.004;2022-08-21T03:54:18;99877.66;;;13.90;100.00
24390;BME280;12510;56.468;-3.004;2022-08-21T03:56:45;99880.44;;;13.73;100.00
24390;BME280;12510;56.468;-3.004;2022-08-21T03:59:11;99886.19;;;14.00;100.00
24390;BME280;12510;56.468;-3.004;2022-08-21T04:01:38;99885.66;;;14.05;100.00
24390;BME280;12510;56.468;-3.004;2022-08-21T04:04:05;99887.50;;;14.04;100.00
24390;BME280;12510;56.468;-3.004;2022-08-21T04:06:32;99886.13;;;14.08;100.00
24390;BME280;12510;56.468;-3.004;2022-08-21T04:08:58;99893.19;;;14.16;100.00
24390;BME280;12510;56.468;-3.004;2022-08-21T04:11:25;99890.03;;;14.36;100.00
24390;BME280;12510;56.468;-3.004;2022-08-21T04:13:51;99889.41;;;14.34;100.00
24390;BME280;12510;56.468;-3.004;2022-08-21T04:16:17;99901.69;;;14.50;100.00
24390;BME280;12510;56.468;-3.004;2022-08-21T04:18:45;99911.84;;;14.23;100.00
24390;BME280;12510;56.468;-3.004;2022-08-21T04:21:12;99898.53;;;14.31;100.00
24390;BME280;12510;56.468;-3.004;2022-08-21T04:23:38;99900.88;;;14.26;100.00
24390;BME280;12510;56.468;-3.004;2022-08-21T04:26:05;99903.53;;;14.26;100.00
24390;BME280;12510;56.468;-3.004;2022-08-21T04:28:32;99912.09;;;14.13;100.00
24390;BME280;12510;56.468;-3.004;2022-08-21T04:30:59;99914.41;;;13.85;100.00
24390;BME280;12510;56.468;-3.004;2022-08-21T04:33:25;99915.31;;;14.00;100.00
24390;BME280;12510;56.468;-3.004;2022-08-21T04:35:52;99913.28;;;14.11;100.00
24390;BME280;12510;56.468;-3.004;2022-08-21T04:38:19;99915.97;;;14.25;100.00
24390;BME280;12510;56.468;-3.004;2022-08-21T04:40:46;99911.50;;;14.03;100.00
24390;BME280;12510;56.468;-3.004;2022-08-21T04:43:14;99912.13;;;14.05;100.00
24390;BME280;12510;56.468;-3.004;2022-08-21T04:45:43;99915.25;;;14.08;100.00
24390;BME280;12510;56.468;-3.004;2022-08-21T04:48:12;99916.44;;;14.06;100.00
24390;BME280;12510;56.468;-3.004;2022-08-21T04:50:59;99918.34;;;14.35;100.00
24390;BME280;12510;56.468;-3.004;2022-08-21T04:53:38;99917.09;;;14.08;100.00
24390;BME280;12510;56.468;-3.004;2022-08-21T04:56:13;99920.09;;;14.28;100.00
24390;BME280;12510;56.468;-3.004;2022-08-21T04:58:40;99916.31;;;13.76;100.00
24390;BME280;12510;56.468;-3.004;2022-08-21T05:01:12;99915.81;;;14.04;100.00
24390;BME280;12510;56.468;-3.004;2022-08-21T05:03:39;99919.50;;;13.63;100.00
24390;BME280;12510;56.468;-3.004;2022-08-21T05:06:10;99925.06;;;13.77;100.00
24390;BME280;12510;56.468;-3.004;2022-08-21T05:08:38;99919.69;;;13.62;100.00
24390;BME280;12510;56.468;-3.004;2022-08-21T05:11:06;99920.19;;;13.88;100.00
24390;BME280;12510;56.468;-3.004;2022-08-21T05:13:33;99931.94;;;14.09;100.00
24390;BME280;12510;56.468;-3.004;2022-08-21T05:15:59;99933.03;;;14.00;100.00
24390;BME280;12510;56.468;-3.004;2022-08-21T05:18:25;99940.31;;;13.98;100.00
24390;BME280;12510;56.468;-3.004;2022-08-21T05:20:52;99945.56;;;14.06;100.00
24390;BME280;12510;56.468;-3.004;2022-08-21T05:23:18;99944.78;;;14.20;100.00
24390;BME280;12510;56.468;-3.004;2022-08-21T05:25:44;99942.72;;;14.07;100.00
24390;BME280;12510;56.468;-3.004;2022-08-21T05:28:11;99939.16;;;14.00;100.00
24390;BME280;12510;56.468;-3.004;2022-08-21T05:30:38;99950.91;;;13.98;100.00
24390;BME280;12510;56.468;-3.004;2022-08-21T05:33:06;99954.44;;;14.36;100.00
24390;BME280;12510;56.468;-3.004;2022-08-21T05:35:37;99963.03;;;14.38;100.00
24390;BME280;12510;56.468;-3.004;2022-08-21T05:38:04;99959.91;;;14.35;100.00
24390;BME280;12510;56.468;-3.004;2022-08-21T05:40:31;99967.31;;;14.39;100.00
24390;BME280;12510;56.468;-3.004;2022-08-21T05:42:58;99967.38;;;14.54;100.00
24390;BME280;12510;56.468;-3.004;2022-08-21T05:45:29;99963.69;;;14.79;100.00
24390;BME280;12510;56.468;-3.004;2022-08-21T05:47:56;99969.25;;;15.07;100.00
24390;BME280;12510;56.468;-3.004;2022-08-21T05:50:23;99973.25;;;15.33;100.00
24390;BME280;12510;56.468;-3.004;2022-08-21T05:52:50;99974.34;;;15.53;100.00
24390;BME280;12510;56.468;-3.004;2022-08-21T05:55:16;99971.50;;;15.55;100.00
24390;BME280;12510;56.468;-3.004;2022-08-21T05:57:42;99972.16;;;15.42;100.00
24390;BME280;12510;56.468;-3.004;2022-08-21T06:00:09;99982.88;;;15.34;100.00
24390;BME280;12510;56.468;-3.004;2022-08-21T06:02:39;99980.00;;;15.05;100.00
24390;BME280;12510;56.468;-3.004;2022-08-21T06:05:06;99992.00;;;14.63;100.00
24390;BME280;12510;56.468;-3.004;2022-08-21T06:07:32;99985.72;;;14.64;100.00
24390;BME280;12510;56.468;-3.004;2022-08-21T06:09:59;99988.78;;;14.91;100.00
24390;BME280;12510;56.468;-3.004;2022-08-21T06:12:26;99989.59;;;14.91;100.00
24390;BME280;12510;56.468;-3.004;2022-08-21T06:14:52;99995.13;;;14.67;100.00
24390;BME280;12510;56.468;-3.004;2022-08-21T06:17:19;99993.03;;;14.77;100.00
24390;BME280;12510;56.468;-3.004;2022-08-21T06:19:51;99995.19;;;15.12;100.00
24390;BME280;12510;56.468;-3.004;2022-08-21T06:22:18;99990.34;;;15.00;100.00
24390;BME280;12510;56.468;-3.004;2022-08-21T06:24:44;99986.59;;;15.09;100.00
24390;BME280;12510;56.468;-3.004;2022-08-21T06:27:10;99985.97;;;15.22;100.00
24390;BME280;12510;56.468;-3.004;2022-08-21T06:29:37;99989.81;;;15.20;100.00
24390;BME280;12510;56.468;-3.004;2022-08-21T06:32:04;99984.78;;;15.25;100.00
24390;BME280;12510;56.468;-3.004;2022-08-21T06:34:36;99986.25;;;14.98;100.00
24390;BME280;12510;56.468;-3.004;2022-08-21T06:37:04;99995.38;;;15.10;100.00
24390;BME280;12510;56.468;-3.004;2022-08-21T06:39:31;99989.38;;;15.31;100.00
24390;BME280;12510;56.468;-3.004;2022-08-21T06:41:58;100002.16;;;15.28;100.00
24390;BME280;12510;56.468;-3.004;2022-08-21T06:44:29;100011.22;;;15.48;100.00
24390;BME280;12510;56.468;-3.004;2022-08-21T06:46:56;100005.97;;;14.95;100.00
24390;BME280;12510;56.468;-3.004;2022-08-21T06:49:23;100007.00;;;15.24;100.00
24390;BME280;12510;56.468;-3.004;2022-08-21T06:51:49;99999.56;;;15.64;100.00
24390;BME280;12510;56.468;-3.004;2022-08-21T06:54:16;99998.84;;;16.44;100.00
24390;BME280;12510;56.468;-3.004;2022-08-21T06:56:42;100000.09;;;16.69;100.00
24390;BME280;12510;56.468;-3.004;2022-08-21T06:59:09;100012.22;;;17.77;100.00
24390;BME280;12510;56.468;-3.004;2022-08-21T07:01:35;100014.81;;;18.05;100.00
24390;BME280;12510;56.468;-3.004;2022-08-21T07:04:02;100029.69;;;18.82;100.00
24390;BME280;12510;56.468;-3.004;2022-08-21T07:06:29;100018.00;;;18.76;100.00
24390;BME280;12510;56.468;-3.004;2022-08-21T07:11:23;100015.56;;;19.87;100.00
24390;BME280;12510;56.468;-3.004;2022-08-21T07:13:50;100022.53;;;19.95;100.00
24390;BME280;12510;56.468;-3.004;2022-08-21T07:16:19;100009.16;;;19.29;100.00
24390;BME280;12510;56.468;-3.004;2022-08-21T07:18:46;100008.25;;;20.71;100.00
24390;BME280;12510;56.468;-3.004;2022-08-21T07:21:12;100028.50;;;19.76;100.00
24390;BME280;12510;56.468;-3.004;2022-08-21T07:23:42;100017.78;;;20.60;100.00
24390;BME280;12510;56.468;-3.004;2022-08-21T07:26:11;100027.66;;;22.03;100.00
24390;BME280;12510;56.468;-3.004;2022-08-21T07:28:38;100025.41;;;20.89;100.00
24390;BME280;12510;56.468;-3.004;2022-08-21T07:31:05;100033.06;;;21.48;100.00
24390;BME280;12510;56.468;-3.004;2022-08-21T07:33:33;100033.47;;;21.07;100.00
24390;BME280;12510;56.468;-3.004;2022-08-21T07:36:01;100040.03;;;21.12;100.00
24390;BME280;12510;56.468;-3.004;2022-08-21T07:38:28;100042.22;;;21.40;100.00
24390;BME280;12510;56.468;-3.004;2022-08-21T07:40:56;100040.47;;;22.20;100.00
24390;BME280;12510;56.468;-3.004;2022-08-21T07:43:25;100041.72;;;22.48;100.00
24390;BME280;12510;56.468;-3.004;2022-08-21T07:45:51;100035.25;;;21.76;100.00
24390;BME280;12510;56.468;-3.004;2022-08-21T07:48:21;100041.63;;;22.54;100.00
24390;BME280;12510;56.468;-3.004;2022-08-21T07:50:48;100038.97;;;22.24;100.00
24390;BME280;12510;56.468;-3.004;2022-08-21T07:53:15;100041.81;;;22.10;100.00
24390;BME280;12510;56.468;-3.004;2022-08-21T07:55:42;100040.31;;;21.03;100.00
24390;BME280;12510;56.468;-3.004;2022-08-21T07:58:08;100050.06;;;21.79;100.00
24390;BME280;12510;56.468;-3.004;2022-08-21T08:00:35;100047.69;;;22.50;100.00
24390;BME280;12510;56.468;-3.004;2022-08-21T08:03:01;100048.19;;;22.58;100.00
24390;BME280;12510;56.468;-3.004;2022-08-21T08:05:29;100049.00;;;22.59;100.00
24390;BME280;12510;56.468;-3.004;2022-08-21T08:07:57;100044.47;;;22.29;100.00
24390;BME280;12510;56.468;-3.004;2022-08-21T08:10:24;100050.25;;;22.26;100.00
24390;BME280;12510;56.468;-3.004;2022-08-21T08:12:52;100057.31;;;21.34;100.00
24390;BME280;12510;56.468;-3.004;2022-08-21T08:15:23;100058.22;;;22.33;100.00
24390;BME280;12510;56.468;-3.004;2022-08-21T08:17:49;100062.22;;;23.08;100.00
24390;BME280;12510;56.468;-3.004;2022-08-21T08:20:17;100060.53;;;23.14;100.00
24390;BME280;12510;56.468;-3.004;2022-08-21T08:22:44;100067.47;;;22.37;100.00
24390;BME280;12510;56.468;-3.004;2022-08-21T08:25:12;100071.47;;;22.46;100.00
24390;BME280;12510;56.468;-3.004;2022-08-21T08:27:40;100068.91;;;23.41;100.00
24390;BME280;12510;56.468;-3.004;2022-08-21T08:30:08;100067.13;;;23.70;100.00
24390;BME280;12510;56.468;-3.004;2022-08-21T08:32:35;100056.63;;;22.43;100.00
24390;BME280;12510;56.468;-3.004;2022-08-21T08:35:03;100056.13;;;22.65;100.00
24390;BME280;12510;56.468;-3.004;2022-08-21T08:37:30;100062.53;;;23.71;100.00
24390;BME280;12510;56.468;-3.004;2022-08-21T08:39:56;100059.44;;;23.38;100.00
24390;BME280;12510;56.468;-3.004;2022-08-21T08:42:32;100065.69;;;24.49;100.00
24390;BME280;12510;56.468;-3.004;2022-08-21T08:45:09;100067.28;;;25.74;100.00
24390;BME280;12510;56.468;-3.004;2022-08-21T08:47:58;100079.19;;;24.83;100.00
24390;BME280;12510;56.468;-3.004;2022-08-21T08:50:38;100069.16;;;23.39;100.00
24390;BME280;12510;56.468;-3.004;2022-08-21T08:53:11;100082.59;;;25.13;100.00
24390;BME280;12510;56.468;-3.004;2022-08-21T08:55:43;100084.00;;;24.35;100.00
24390;BME280;12510;56.468;-3.004;2022-08-21T08:58:22;100076.75;;;24.82;100.00
24390;BME280;12510;56.468;-3.004;2022-08-21T09:00:51;100090.03;;;23.49;100.00
24390;BME280;12510;56.468;-3.004;2022-08-21T09:03:18;100092.03;;;23.66;100.00
24390;BME280;12510;56.468;-3.004;2022-08-21T09:13:44;100087.00;;;24.85;100.00
24390;BME280;12510;56.468;-3.004;2022-08-21T09:16:35;100093.81;;;23.24;100.00
24390;BME280;12510;56.468;-3.004;2022-08-21T09:22:08;100098.78;;;24.79;100.00
24390;BME280;12510;56.468;-3.004;2022-08-21T09:27:10;100105.72;;;24.46;100.00
24390;BME280;12510;56.468;-3.004;2022-08-21T09:29:43;100109.84;;;24.36;100.00
24390;BME280;12510;56.468;-3.004;2022-08-21T09:32:31;100111.97;;;24.63;100.00
24390;BME280;12510;56.468;-3.004;2022-08-21T09:37:35;100119.03;;;24.23;100.00
24390;BME280;12510;56.468;-3.004;2022-08-21T09:40:17;100120.78;;;23.18;100.00
24390;BME280;12510;56.468;-3.004;2022-08-21T09:42:55;100119.78;;;24.07;100.00
24390;BME280;12510;56.468;-3.004;2022-08-21T09:45:22;100113.41;;;23.72;100.00
24390;BME280;12510;56.468;-3.004;2022-08-21T09:47:48;100113.63;;;23.12;100.00
24390;BME280;12510;56.468;-3.004;2022-08-21T09:50:19;100112.38;;;22.72;100.00
24390;BME280;12510;56.468;-3.004;2022-08-21T09:52:49;100123.59;;;21.83;100.00
24390;BME280;12510;56.468;-3.004;2022-08-21T09:55:21;100117.41;;;22.19;100.00
24390;BME280;12510;56.468;-3.004;2022-08-21T09:58:07;100125.59;;;21.87;100.00
24390;BME280;12510;56.468;-3.004;2022-08-21T10:00:35;100132.44;;;20.89;100.00
24390;BME280;12510;56.468;-3.004;2022-08-21T10:03:31;100129.06;;;21.00;100.00
24390;BME280;12510;56.468;-3.004;2022-08-21T10:06:03;100127.59;;;21.55;100.00
24390;BME280;12510;56.468;-3.004;2022-08-21T10:08:33;100140.88;;;21.43;100.00
24390;BME280;12510;56.468;-3.004;2022-08-21T10:11:15;100146.63;;;20.51;100.00
24390;BME280;12510;56.468;-3.004;2022-08-21T10:24:48;100153.41;;;20.92;100.00
24390;BME280;12510;56.468;-3.004;2022-08-21T10:27:32;100146.84;;;21.20;100.00
24390;BME280;12510;56.468;-3.004;2022-08-21T10:30:06;100149.50;;;22.07;100.00
24390;BME280;12510;56.468;-3.004;2022-08-21T10:35:33;100158.16;;;22.09;100.00
24390;BME280;12510;56.468;-3.004;2022-08-21T10:44:17;100157.34;;;23.19;100.00
24390;BME280;12510;56.468;-3.004;2022-08-21T10:46:54;100163.00;;;23.10;100.00
24390;BME280;12510;56.468;-3.004;2022-08-21T10:49:45;100160.13;;;22.33;100.00
24390;BME280;12510;56.468;-3.004;2022-08-21T10:55:27;100163.06;;;21.94;100.00
24390;BME280;12510;56.468;-3.004;2022-08-21T10:58:12;100154.13;;;22.19;100.00
24390;BME280;12510;56.468;-3.004;2022-08-21T11:00:48;100155.59;;;22.33;100.00
24390;BME280;12510;56.468;-3.004;2022-08-21T11:03:33;100159.47;;;23.40;100.00
24390;BME280;12510;56.468;-3.004;2022-08-21T11:06:20;100165.66;;;22.87;100.00
24390;BME280;12510;56.468;-3.004;2022-08-21T11:08:59;100163.97;;;23.28;100.00
24390;BME280;12510;56.468;-3.004;2022-08-21T11:11:48;100171.56;;;23.19;100.00
24390;BME280;12510;56.468;-3.004;2022-08-21T11:14:34;100177.19;;;23.41;100.00
24390;BME280;12510;56.468;-3.004;2022-08-21T11:17:11;100163.66;;;23.36;100.00
24390;BME280;12510;56.468;-3.004;2022-08-21T11:19:45;100173.50;;;23.00;100.00
24390;BME280;12510;56.468;-3.004;2022-08-21T11:22:46;100178.56;;;22.29;100.00
24390;BME280;12510;56.468;-3.004;2022-08-21T11:25:21;100200.63;;;22.50;100.00
24390;BME280;12510;56.468;-3.004;2022-08-21T11:28:08;100201.19;;;21.96;100.00
24390;BME280;12510;56.468;-3.004;2022-08-21T11:30:57;100214.50;;;22.47;100.00
24390;BME280;12510;56.468;-3.004;2022-08-21T11:33:29;100203.34;;;22.06;100.00
24390;BME280;12510;56.468;-3.004;2022-08-21T11:36:02;100213.13;;;22.56;100.00
24390;BME280;12510;56.468;-3.004;2022-08-21T11:38:41;100217.56;;;22.81;100.00
24390;BME280;12510;56.468;-3.004;2022-08-21T11:44:32;100212.50;;;22.72;100.00
24390;BME280;12510;56.468;-3.004;2022-08-21T11:47:11;100222.06;;;22.68;100.00
24390;BME280;12510;56.468;-3.004;2022-08-21T11:49:49;100213.59;;;22.83;100.00
24390;BME280;12510;56.468;-3.004;2022-08-21T11:52:43;100218.34;;;21.70;100.00
24390;BME280;12510;56.468;-3.004;2022-08-21T11:58:25;100215.91;;;22.49;100.00
24390;BME280;12510;56.468;-3.004;2022-08-21T12:01:01;100209.25;;;22.15;100.00
24390;BME280;12510;56.468;-3.004;2022-08-21T12:03:51;100217.88;;;22.17;100.00
24390;BME280;12510;56.468;-3.004;2022-08-21T12:06:34;100217.06;;;23.56;94.68
24390;BME280;12510;56.468;-3.004;2022-08-21T12:09:10;100218.34;;;22.69;100.00
24390;BME280;12510;56.468;-3.004;2022-08-21T12:11:49;100220.66;;;23.08;100.00
24390;BME280;12510;56.468;-3.004;2022-08-21T12:14:18;100218.63;;;22.61;100.00
24390;BME280;12510;56.468;-3.004;2022-08-21T12:16:47;100219.38;;;23.41;100.00
24390;BME280;12510;56.468;-3.004;2022-08-21T12:19:28;100224.97;;;23.27;98.79
24390;BME280;12510;56.468;-3.004;2022-08-21T12:22:11;100217.97;;;22.47;100.00
24390;BME280;12510;56.468;-3.004;2022-08-21T12:24:50;100224.34;;;22.27;100.00
24390;BME280;12510;56.468;-3.004;2022-08-21T12:29:48;100224.00;;;22.24;100.00
24390;BME280;12510;56.468;-3.004;2022-08-21T12:34:46;100238.75;;;21.71;100.00
24390;BME280;12510;56.468;-3.004;2022-08-21T12:37:19;100242.56;;;21.82;100.00
24390;BME280;12510;56.468;-3.004;2022-08-21T12:39:50;100241.88;;;22.12;100.00
24390;BME280;12510;56.468;-3.004;2022-08-21T12:42:23;100255.38;;;22.42;100.00
24390;BME280;12510;56.468;-3.004;2022-08-21T12:44:54;100253.00;;;21.90;100.00
24390;BME280;12510;56.468;-3.004;2022-08-21T12:47:31;100253.78;;;21.72;100.00
24390;BME280;12510;56.468;-3.004;2022-08-21T12:53:06;100247.50;;;21.27;100.00
24390;BME280;12510;56.468;-3.004;2022-08-21T12:55:34;100243.34;;;22.07;100.00
24390;BME280;12510;56.468;-3.004;2022-08-21T12:58:00;100246.06;;;22.45;100.00
24390;BME280;12510;56.468;-3.004;2022-08-21T13:00:29;100251.31;;;21.96;100.00
24390;BME280;12510;56.468;-3.004;2022-08-21T13:02:56;100246.00;;;22.51;100.00
24390;BME280;12510;56.468;-3.004;2022-08-21T13:05:29;100250.53;;;23.30;99.50
24390;BME280;12510;56.468;-3.004;2022-08-21T13:07:56;100248.19;;;23.22;100.00
24390;BME280;12510;56.468;-3.004;2022-08-21T13:12:54;100255.41;;;22.17;100.00
24390;BME280;12510;56.468;-3.004;2022-08-21T13:15:31;100247.09;;;22.62;100.00
24390;BME280;12510;56.468;-3.004;2022-08-21T13:17:59;100247.31;;;23.09;100.00
24390;BME280;12510;56.468;-3.004;2022-08-21T13:20:31;100249.03;;;22.73;100.00
24390;BME280;12510;56.468;-3.004;2022-08-21T13:22:59;100244.72;;;22.54;100.00
24390;BME280;12510;56.468;-3.004;2022-08-21T13:25:29;100253.63;;;22.85;100.00
24390;BME280;12510;56.468;-3.004;2022-08-21T13:28:05;100255.41;;;23.21;100.00
24390;BME280;12510;56.468;-3.004;2022-08-21T13:30:33;100247.13;;;22.92;100.00
24390;BME280;12510;56.468;-3.004;2022-08-21T13:33:01;100263.63;;;22.96;100.00
24390;BME280;12510;56.468;-3.004;2022-08-21T13:35:44;100261.84;;;22.34;100.00
24390;BME280;12510;56.468;-3.004;2022-08-21T13:38:14;100255.56;;;23.26;100.00
24390;BME280;12510;56.468;-3.004;2022-08-21T13:40:50;100260.31;;;22.45;100.00
24390;BME280;12510;56.468;-3.004;2022-08-21T13:43:22;100259.34;;;22.58;100.00
24390;BME280;12510;56.468;-3.004;2022-08-21T13:45:53;100257.16;;;22.30;100.00
24390;BME280;12510;56.468;-3.004;2022-08-21T13:48:22;100257.03;;;21.55;100.00
24390;BME280;12510;56.468;-3.004;2022-08-21T13:50:49;100250.00;;;22.23;100.00
24390;BME280;12510;56.468;-3.004;2022-08-21T13:56:23;100265.06;;;23.53;100.00